Time;durP1;ratioP1;P1;durP2;ratioP2;P2;SDS_P1;SDS_P2;PMS_P1;PMS_P2;Temp;Humidity;BMP_temperature;BMP_pressure;BME280_temperature;BME280_humidity;BME280_pressure;Samples;Min_cycle;Max_cycle;Signal;HPM_P1;HPM_P2
2023/08/21 00:01:13;;;;;;;0.10;0.10;;;17.80;99.90;;;;;;5109326;28;20193;-84
2023/08/21 00:03:38;;;;;;;0.10;0.10;;;17.70;99.90;;;;;;5109956;28;20615;-84
2023/08/21 00:06:04;;;;;;;0.10;0.10;;;17.60;99.90;;;;;;5089430;28;20184;-84
2023/08/21 00:08:29;;;;;;;0.10;0.10;;;17.60;99.90;;;;;;5107706;28;20188;-84
2023/08/21 00:10:55;;;;;;;0.10;0.10;;;17.50;99.90;;;;;;5110379;28;20663;-84
2023/08/21 00:13:21;;;;;;;0.10;0.10;;;17.50;99.90;;;;;;5091005;28;20674;-84
2023/08/21 00:15:46;;;;;;;0.10;0.10;;;17.50;99.90;;;;;;5105747;28;20187;-85
2023/08/21 00:18:12;;;;;;;0.10;0.10;;;17.60;99.90;;;;;;5108362;28;20180;-85
2023/08/21 00:20:37;;;;;;;0.10;0.10;;;17.50;99.90;;;;;;5108748;28;20195;-84
2023/08/21 00:23:03;;;;;;;0.10;0.10;;;17.50;99.90;;;;;;5094246;28;20188;-84
2023/08/21 00:25:28;;;;;;;0.10;0.10;;;17.50;99.90;;;;;;5101209;28;20251;-85
2023/08/21 00:27:54;;;;;;;0.10;0.10;;;17.50;99.90;;;;;;5095015;27;20189;-84
2023/08/21 00:30:20;;;;;;;0.10;0.10;;;17.40;99.90;;;;;;5106870;28;20251;-84
2023/08/21 00:32:45;;;;;;;0.10;0.10;;;17.40;99.90;;;;;;5111240;28;20632;-84
2023/08/21 00:35:11;;;;;;;0.10;0.10;;;17.40;99.90;;;;;;5108635;28;20226;-84
2023/08/21 00:37:36;;;;;;;0.10;0.10;;;17.60;99.90;;;;;;5106088;28;20199;-84
2023/08/21 00:40:02;;;;;;;0.10;0.10;;;17.40;99.90;;;;;;5105104;28;20194;-84
2023/08/21 00:42:28;;;;;;;0.10;0.10;;;17.40;99.90;;;;;;5109734;28;20448;-83
2023/08/21 00:44:53;;;;;;;0.10;0.10;;;17.30;99.90;;;;;;5106280;28;20997;-85
2023/08/21 00:47:22;;;;;;;0.10;0.10;;;17.40;99.90;;;;;;5116965;28;20190;-84
2023/08/21 00:49:48;;;;;;;0.10;0.10;;;17.20;99.90;;;;;;5116225;28;20176;-84
2023/08/21 00:52:14;;;;;;;0.10;0.10;;;17.10;99.90;;;;;;5110294;28;20488;-84
2023/08/21 00:54:40;;;;;;;0.10;0.10;;;17.10;99.90;;;;;;5107686;28;21261;-84
2023/08/21 00:57:06;;;;;;;0.10;0.10;;;16.90;99.90;;;;;;5102919;28;20438;-83
2023/08/21 00:59:31;;;;;;;0.10;0.10;;;16.90;99.90;;;;;;5110169;28;20921;-84
2023/08/21 01:01:57;;;;;;;0.10;0.10;;;16.80;99.90;;;;;;5088510;28;20284;-84
2023/08/21 01:04:22;;;;;;;0.10;0.10;;;16.80;99.90;;;;;;5111545;28;20189;-84
2023/08/21 01:06:49;;;;;;;0.10;0.10;;;16.80;99.90;;;;;;5095216;28;20271;-84
2023/08/21 01:09:32;;;;;;;0.10;0.10;;;16.70;99.90;;;;;;5113072;28;20179;-84
2023/08/21 01:12:18;;;;;;;0.10;0.10;;;16.70;99.90;;;;;;5110402;28;20602;-84
2023/08/21 01:14:58;;;;;;;0.10;0.10;;;16.70;99.90;;;;;;5110967;27;20500;-84
2023/08/21 01:17:25;;;;;;;0.10;0.10;;;16.80;99.90;;;;;;5110730;28;20526;-84
2023/08/21 01:19:51;;;;;;;0.10;0.10;;;16.80;99.90;;;;;;5112364;27;20438;-84
2023/08/21 01:22:17;;;;;;;0.10;0.10;;;16.90;99.90;;;;;;5118999;27;20429;-84
2023/08/21 01:24:42;;;;;;;0.10;0.10;;;17.10;99.90;;;;;;5102318;28;20434;-83
2023/08/21 01:27:10;;;;;;;0.10;0.10;;;17.10;99.90;;;;;;5078148;27;20186;-84
2023/08/21 01:29:36;;;;;;;0.10;0.10;;;16.90;99.90;;;;;;5095948;28;20664;-83
2023/08/21 01:32:08;;;;;;;0.10;0.10;;;16.90;99.90;;;;;;5108999;27;20564;-84
2023/08/21 01:34:34;;;;;;;0.10;0.10;;;16.80;99.90;;;;;;5095565;28;20444;-83
2023/08/21 01:37:01;;;;;;;0.10;0.10;;;16.90;99.90;;;;;;5111396;28;20446;-84
2023/08/21 01:39:27;;;;;;;0.10;0.10;;;16.90;99.90;;;;;;5113078;28;20433;-84
2023/08/21 01:41:52;;;;;;;0.10;0.10;;;16.80;99.90;;;;;;5108473;28;20855;-84
2023/08/21 01:44:18;;;;;;;0.10;0.10;;;16.70;99.90;;;;;;5114743;27;20985;-84
2023/08/21 01:46:43;;;;;;;0.10;0.10;;;16.60;99.90;;;;;;5109678;27;20595;-84
2023/08/21 01:49:09;;;;;;;0.10;0.10;;;16.50;99.90;;;;;;5107118;27;20225;-83
2023/08/21 01:51:34;;;;;;;0.10;0.10;;;16.40;99.90;;;;;;5091884;28;20216;-83
2023/08/21 01:54:00;;;;;;;0.10;0.10;;;16.40;99.90;;;;;;5110778;28;20185;-84
2023/08/21 01:56:26;;;;;;;0.10;0.10;;;16.40;99.90;;;;;;5110117;28;20267;-83
2023/08/21 01:58:51;;;;;;;0.10;0.10;;;16.40;99.90;;;;;;5112739;28;20173;-83
2023/08/21 02:01:18;;;;;;;0.10;0.10;;;16.40;99.90;;;;;;5111318;27;20188;-83
2023/08/21 02:03:44;;;;;;;0.10;0.10;;;16.30;99.90;;;;;;5111950;28;20275;-84
2023/08/21 02:06:10;;;;;;;0.10;0.10;;;16.40;99.90;;;;;;5110052;28;20482;-84
2023/08/21 02:08:35;;;;;;;0.10;0.10;;;16.40;99.90;;;;;;5110474;28;20473;-83
2023/08/21 02:11:01;;;;;;;0.10;0.10;;;16.50;99.90;;;;;;5115009;27;20215;-83
2023/08/21 02:13:26;;;;;;;0.10;0.10;;;16.50;99.90;;;;;;5110420;28;20200;-84
2023/08/21 02:15:52;;;;;;;0.10;0.10;;;16.60;99.90;;;;;;5109092;28;20207;-83
2023/08/21 02:18:17;;;;;;;0.10;0.10;;;16.70;99.90;;;;;;5111268;27;20555;-83
2023/08/21 02:20:43;;;;;;;0.10;0.10;;;16.70;99.90;;;;;;5109655;28;20184;-84
2023/08/21 02:23:09;;;;;;;0.10;0.10;;;16.70;99.90;;;;;;5109587;27;20204;-84
2023/08/21 02:25:34;;;;;;;0.10;0.10;;;16.80;99.90;;;;;;5089229;27;20193;-83
2023/08/21 02:28:00;;;;;;;0.10;0.10;;;16.90;99.90;;;;;;5082657;28;20188;-84
2023/08/21 02:30:27;;;;;;;0.10;0.10;;;17.00;99.90;;;;;;5111260;28;20307;-84
2023/08/21 02:32:53;;;;;;;0.10;0.10;;;17.10;99.90;;;;;;5113091;28;20177;-85
2023/08/21 02:35:18;;;;;;;0.10;0.10;;;17.00;99.90;;;;;;5093307;28;20474;-84
2023/08/21 02:37:44;;;;;;;0.10;0.10;;;17.00;99.90;;;;;;5112494;28;20535;-84
2023/08/21 02:40:09;;;;;;;0.10;0.10;;;17.00;99.90;;;;;;5112022;28;20655;-83
2023/08/21 02:42:36;;;;;;;0.10;0.10;;;16.90;99.90;;;;;;5115218;27;20192;-84
2023/08/21 02:45:03;;;;;;;0.10;0.10;;;16.90;99.90;;;;;;5108397;28;20192;-84
2023/08/21 02:47:29;;;;;;;0.10;0.10;;;16.90;99.90;;;;;;5109009;28;20434;-84
2023/08/21 02:49:55;;;;;;;0.10;0.10;;;16.90;99.90;;;;;;5112057;27;20966;-84
2023/08/21 02:52:20;;;;;;;0.10;0.10;;;16.90;99.90;;;;;;5110656;27;20485;-84
2023/08/21 02:54:46;;;;;;;0.10;0.10;;;16.90;99.90;;;;;;5099041;28;20196;-83
2023/08/21 02:57:11;;;;;;;0.10;0.00;;;16.90;99.90;;;;;;5120263;27;20181;-84
2023/08/21 02:59:37;;;;;;;0.10;0.10;;;16.90;99.90;;;;;;5106137;28;20618;-84
2023/08/21 03:02:02;;;;;;;0.10;0.10;;;17.00;99.90;;;;;;5116211;27;20213;-84
2023/08/21 03:04:28;;;;;;;0.10;0.10;;;17.00;99.90;;;;;;5101298;28;20755;-84
2023/08/21 03:06:53;;;;;;;0.10;0.10;;;17.00;99.90;;;;;;5108172;28;20219;-84
2023/08/21 03:09:19;;;;;;;0.10;0.10;;;17.00;99.90;;;;;;5099357;28;20197;-84
2023/08/21 03:11:44;;;;;;;0.10;0.10;;;16.90;99.90;;;;;;5117533;27;20216;-84
2023/08/21 03:14:10;;;;;;;0.10;0.10;;;17.00;99.90;;;;;;5105747;27;20197;-84
2023/08/21 03:16:35;;;;;;;0.10;0.10;;;17.00;99.90;;;;;;5106219;28;20216;-84
2023/08/21 03:19:01;;;;;;;0.10;0.10;;;16.90;99.90;;;;;;5116148;27;20179;-84
2023/08/21 03:21:27;;;;;;;0.10;0.10;;;17.00;99.90;;;;;;5132733;27;20172;-84
2023/08/21 03:23:58;;;;;;;0.10;0.10;;;16.90;99.90;;;;;;5110484;27;20648;-85
2023/08/21 03:26:24;;;;;;;0.10;0.10;;;16.90;99.90;;;;;;5112470;27;20455;-84
2023/08/21 03:28:49;;;;;;;0.10;0.10;;;16.90;99.90;;;;;;5113195;27;20902;-83
2023/08/21 03:31:15;;;;;;;0.10;0.10;;;16.90;99.90;;;;;;5108926;28;20503;-84
2023/08/21 03:33:40;;;;;;;0.10;0.10;;;17.00;99.90;;;;;;5109854;28;20195;-85
2023/08/21 03:36:06;;;;;;;0.10;0.10;;;17.00;99.90;;;;;;5094121;27;20190;-84
2023/08/21 03:38:32;;;;;;;0.07;0.00;;;17.00;99.90;;;;;;5114961;27;20216;-84
2023/08/21 03:40:58;;;;;;;0.10;0.10;;;17.00;99.90;;;;;;5121746;27;20794;-84
2023/08/21 03:43:24;;;;;;;0.10;0.10;;;17.00;99.90;;;;;;5105748;27;20184;-85
2023/08/21 03:45:49;;;;;;;0.10;0.10;;;16.90;99.90;;;;;;5110904;27;20453;-84
2023/08/21 03:48:15;;;;;;;0.10;0.10;;;16.90;99.90;;;;;;5114611;27;20567;-85
2023/08/21 03:50:40;;;;;;;0.10;0.10;;;16.80;99.90;;;;;;5093256;28;20200;-84
2023/08/21 03:53:06;;;;;;;0.10;0.10;;;16.90;99.90;;;;;;5117922;27;20556;-84
2023/08/21 03:55:32;;;;;;;0.10;0.10;;;16.90;99.90;;;;;;5112739;27;20546;-84
2023/08/21 03:57:57;;;;;;;0.10;0.10;;;16.80;99.90;;;;;;5103433;27;20651;-84
2023/08/21 04:00:23;;;;;;;0.10;0.10;;;16.90;99.90;;;;;;5098429;27;20200;-85
2023/08/21 04:02:48;;;;;;;0.10;0.10;;;16.90;99.90;;;;;;5090086;28;20597;-84
2023/08/21 04:05:14;;;;;;;0.10;0.10;;;16.80;99.90;;;;;;5106806;28;20184;-84
2023/08/21 04:07:39;;;;;;;0.10;0.10;;;16.90;99.90;;;;;;5109626;28;20187;-84
2023/08/21 04:10:06;;;;;;;0.10;0.10;;;16.90;99.90;;;;;;5109215;27;20204;-84
2023/08/21 04:12:31;;;;;;;0.10;0.10;;;16.80;99.90;;;;;;5090760;28;20216;-84
2023/08/21 04:14:57;;;;;;;0.10;0.10;;;16.80;99.90;;;;;;5106888;28;21040;-84
2023/08/21 04:17:23;;;;;;;0.10;0.10;;;16.80;99.90;;;;;;5090970;28;20722;-84
2023/08/21 04:19:49;;;;;;;0.10;0.10;;;16.90;99.90;;;;;;5122986;27;20183;-84
2023/08/21 04:22:14;;;;;;;0.10;0.10;;;16.90;99.90;;;;;;5118372;27;20434;-83
2023/08/21 04:24:41;;;;;;;0.10;0.10;;;16.90;99.90;;;;;;5109849;28;20536;-85
2023/08/21 04:27:06;;;;;;;0.10;0.10;;;16.90;99.90;;;;;;5116133;27;20643;-84
2023/08/21 04:29:32;;;;;;;0.10;0.00;;;16.90;99.90;;;;;;5110299;28;20474;-84
2023/08/21 04:31:57;;;;;;;0.10;0.10;;;16.80;99.90;;;;;;5103696;28;20637;-84
2023/08/21 04:34:23;;;;;;;0.10;0.10;;;16.90;99.90;;;;;;5109995;28;20184;-85
2023/08/21 04:36:49;;;;;;;0.10;0.10;;;16.70;99.90;;;;;;5107287;28;20188;-84
2023/08/21 04:39:14;;;;;;;0.10;0.10;;;16.60;99.90;;;;;;5085617;28;20185;-84
2023/08/21 04:41:41;;;;;;;0.10;0.10;;;16.70;99.90;;;;;;5104116;28;20214;-84
2023/08/21 04:44:07;;;;;;;0.10;0.10;;;16.70;99.90;;;;;;5107680;28;20652;-84
2023/08/21 04:46:32;;;;;;;0.10;0.10;;;16.60;99.90;;;;;;5109851;28;20433;-84
2023/08/21 04:48:58;;;;;;;0.10;0.10;;;16.50;99.90;;;;;;5113980;28;20524;-84
2023/08/21 04:51:23;;;;;;;0.10;0.10;;;16.60;99.90;;;;;;5091144;28;20346;-84
2023/08/21 04:53:49;;;;;;;0.10;0.10;;;16.60;99.90;;;;;;5110930;28;20267;-85
2023/08/21 04:56:14;;;;;;;0.10;0.10;;;16.70;99.90;;;;;;5089590;28;20226;-83
2023/08/21 04:58:40;;;;;;;0.10;0.10;;;16.70;99.90;;;;;;5089077;28;20655;-85
2023/08/21 05:01:05;;;;;;;0.10;0.10;;;16.70;99.90;;;;;;5106841;28;20602;-84
2023/08/21 05:03:31;;;;;;;0.10;0.10;;;16.80;99.90;;;;;;5099714;28;20618;-84
2023/08/21 05:05:56;;;;;;;0.10;0.10;;;16.70;99.90;;;;;;5085385;28;21007;-84
2023/08/21 05:08:24;;;;;;;0.10;0.10;;;16.80;99.90;;;;;;5106350;28;20184;-84
2023/08/21 05:11:00;;;;;;;0.10;0.10;;;16.70;99.90;;;;;;5105120;28;20223;-85
2023/08/21 05:13:26;;;;;;;0.10;0.10;;;16.80;99.90;;;;;;5087779;28;20446;-84
2023/08/21 05:15:58;;;;;;;0.10;0.10;;;16.80;99.90;;;;;;5102749;28;20886;-84
2023/08/21 05:18:25;;;;;;;0.10;0.10;;;16.80;99.90;;;;;;5107566;28;20438;-84
2023/08/21 05:20:54;;;;;;;0.10;0.10;;;16.80;99.90;;;;;;5104285;28;20460;-85
2023/08/21 05:23:20;;;;;;;0.10;0.10;;;16.80;99.90;;;;;;5108370;28;20521;-84
2023/08/21 05:25:49;;;;;;;0.10;0.10;;;16.70;99.90;;;;;;5108598;28;20541;-85
2023/08/21 05:28:14;;;;;;;0.10;0.10;;;16.70;99.90;;;;;;5109996;28;20265;-84
2023/08/21 05:30:40;;;;;;;0.10;0.10;;;16.80;99.90;;;;;;5096682;28;20655;-85
2023/08/21 05:33:06;;;;;;;0.10;0.10;;;16.80;99.90;;;;;;5104514;28;20227;-85
2023/08/21 05:35:38;;;;;;;0.10;0.10;;;16.80;99.90;;;;;;5105447;28;20554;-85
2023/08/21 05:38:03;;;;;;;0.10;0.10;;;16.80;99.90;;;;;;5087946;28;20609;-85
2023/08/21 05:40:29;;;;;;;0.10;0.10;;;16.80;99.90;;;;;;5111545;28;20434;-86
2023/08/21 05:42:55;;;;;;;0.10;0.10;;;16.80;99.90;;;;;;5106657;28;20243;-84
2023/08/21 05:45:20;;;;;;;0.10;0.10;;;16.70;99.90;;;;;;5103730;28;20909;-84
2023/08/21 05:47:46;;;;;;;0.10;0.10;;;16.60;99.90;;;;;;5089833;28;20191;-85
2023/08/21 05:50:11;;;;;;;0.10;0.10;;;16.70;99.90;;;;;;5109308;27;20192;-85
2023/08/21 05:52:37;;;;;;;0.10;0.10;;;16.70;99.90;;;;;;5109747;28;20580;-84
2023/08/21 05:55:03;;;;;;;0.10;0.10;;;16.70;99.90;;;;;;5107975;27;20193;-85
2023/08/21 05:57:29;;;;;;;0.10;0.10;;;16.80;99.90;;;;;;5101213;28;20191;-86
2023/08/21 05:59:54;;;;;;;0.10;0.10;;;16.90;99.90;;;;;;5108708;28;20438;-85
2023/08/21 06:02:20;;;;;;;0.10;0.10;;;16.90;99.90;;;;;;5109768;27;20188;-84
2023/08/21 06:04:46;;;;;;;0.10;0.10;;;17.00;99.90;;;;;;5096548;28;20276;-85
2023/08/21 06:07:11;;;;;;;0.10;0.10;;;16.90;99.90;;;;;;5109914;28;20267;-84
2023/08/21 06:09:37;;;;;;;0.10;0.10;;;16.80;99.90;;;;;;5106250;27;20271;-86
2023/08/21 06:12:03;;;;;;;0.10;0.10;;;17.00;99.90;;;;;;5110281;28;20219;-85
2023/08/21 06:14:29;;;;;;;0.10;0.10;;;17.10;99.90;;;;;;5091839;28;20187;-84
2023/08/21 06:17:01;;;;;;;0.10;0.10;;;17.30;99.90;;;;;;5090524;28;20446;-85
2023/08/21 06:19:28;;;;;;;0.10;0.10;;;17.30;99.90;;;;;;5107767;28;20460;-84
2023/08/21 06:21:57;;;;;;;0.10;0.10;;;17.30;99.90;;;;;;5090862;28;20443;-84
2023/08/21 06:24:23;;;;;;;0.10;0.10;;;17.40;99.90;;;;;;5109654;28;21042;-85
2023/08/21 06:26:50;;;;;;;0.10;0.10;;;17.40;99.90;;;;;;5114127;27;20441;-85
2023/08/21 06:29:16;;;;;;;0.10;0.10;;;17.50;99.90;;;;;;5087509;28;20585;-85
2023/08/21 06:31:42;;;;;;;0.10;0.10;;;17.60;99.90;;;;;;5103218;27;20569;-85
2023/08/21 06:34:08;;;;;;;0.10;0.10;;;17.60;99.90;;;;;;5109528;27;20184;-84
2023/08/21 06:36:33;;;;;;;0.10;0.10;;;17.70;99.90;;;;;;5106843;27;20478;-87
2023/08/21 06:38:59;;;;;;;0.10;0.10;;;17.40;99.90;;;;;;5105750;28;20180;-85
2023/08/21 06:41:25;;;;;;;0.10;0.10;;;17.50;99.90;;;;;;5108968;28;20181;-85
2023/08/21 06:43:51;;;;;;;0.10;0.00;;;17.60;99.90;;;;;;5106939;28;20180;-85
2023/08/21 06:46:16;;;;;;;0.10;0.00;;;17.80;99.90;;;;;;5103486;28;21049;-85
2023/08/21 06:48:42;;;;;;;0.10;0.00;;;17.80;99.90;;;;;;5101684;28;20183;-85
2023/08/21 06:51:09;;;;;;;0.10;0.00;;;18.10;99.90;;;;;;5101473;28;20840;-84
2023/08/21 06:53:34;;;;;;;0.10;0.10;;;18.20;99.90;;;;;;5112461;28;20454;-85
2023/08/21 06:56:00;;;;;;;0.10;0.10;;;18.30;99.90;;;;;;5111183;28;20448;-84
2023/08/21 06:58:25;;;;;;;0.10;0.10;;;18.40;99.90;;;;;;5110060;28;20197;-85
2023/08/21 07:00:53;;;;;;;0.10;0.00;;;18.40;99.90;;;;;;5106203;28;20659;-85
2023/08/21 07:03:18;;;;;;;0.10;0.00;;;18.60;99.90;;;;;;5099511;28;20225;-85
2023/08/21 07:05:48;;;;;;;0.10;0.10;;;18.40;99.90;;;;;;5105614;28;20538;-85
2023/08/21 07:08:13;;;;;;;0.10;0.00;;;18.30;99.90;;;;;;5111869;28;20309;-86
2023/08/21 07:10:39;;;;;;;0.10;0.10;;;18.30;99.90;;;;;;5107648;28;20521;-84
2023/08/21 07:13:04;;;;;;;0.10;0.10;;;18.40;99.90;;;;;;5108992;28;20193;-85
2023/08/21 07:15:30;;;;;;;0.10;0.00;;;18.50;99.90;;;;;;5086290;28;20184;-85
2023/08/21 07:17:55;;;;;;;0.10;0.00;;;18.60;99.90;;;;;;5108743;27;20551;-85
2023/08/21 07:20:22;;;;;;;0.10;0.10;;;18.70;99.90;;;;;;5089175;28;20944;-85
2023/08/21 07:22:47;;;;;;;0.10;0.00;;;18.90;99.90;;;;;;5109170;27;20188;-86
2023/08/21 07:25:13;;;;;;;0.10;0.00;;;19.00;99.90;;;;;;5105502;28;20464;-85
2023/08/21 07:27:39;;;;;;;0.10;0.10;;;19.20;99.90;;;;;;5108821;28;20184;-86
2023/08/21 07:30:06;;;;;;;0.10;0.00;;;19.10;99.90;;;;;;5098526;27;20235;-85
2023/08/21 07:32:31;;;;;;;0.10;0.00;;;19.20;99.90;;;;;;5109285;27;20258;-84
2023/08/21 07:34:56;;;;;;;0.10;0.00;;;19.50;99.90;;;;;;5111141;28;20523;-85
2023/08/21 07:37:22;;;;;;;0.10;0.10;;;19.30;99.90;;;;;;5102674;28;20689;-85
2023/08/21 07:39:48;;;;;;;0.10;0.00;;;19.40;99.90;;;;;;5109455;27;20188;-85
2023/08/21 07:42:13;;;;;;;0.10;0.00;;;19.50;99.90;;;;;;5092835;27;20183;-86
2023/08/21 07:44:39;;;;;;;0.10;0.00;;;19.60;99.90;;;;;;5110154;28;20708;-86
2023/08/21 07:47:05;;;;;;;0.10;0.10;;;19.60;99.90;;;;;;5106954;28;20271;-85
2023/08/21 07:49:32;;;;;;;0.10;0.10;;;19.70;99.90;;;;;;5110806;27;20650;-85
2023/08/21 07:51:57;;;;;;;0.10;0.00;;;19.80;99.90;;;;;;5074973;28;20637;-86
2023/08/21 07:54:24;;;;;;;0.10;0.00;;;19.70;99.90;;;;;;5091419;28;20438;-85
2023/08/21 07:56:50;;;;;;;0.10;0.00;;;19.70;99.90;;;;;;5091530;28;20189;-86
2023/08/21 07:59:15;;;;;;;0.10;0.00;;;19.60;99.90;;;;;;5099608;27;20954;-86
2023/08/21 08:01:41;;;;;;;0.10;0.00;;;19.80;99.90;;;;;;5102005;28;20461;-85
2023/08/21 08:04:07;;;;;;;0.10;0.00;;;20.00;99.90;;;;;;5108050;28;20218;-86
2023/08/21 08:06:33;;;;;;;0.10;0.10;;;20.00;99.90;;;;;;5109435;28;20187;-86
2023/08/21 08:08:58;;;;;;;0.10;0.00;;;19.70;99.90;;;;;;5105929;28;20434;-84
2023/08/21 08:11:24;;;;;;;0.10;0.00;;;19.70;99.90;;;;;;5090698;28;20214;-85
2023/08/21 08:13:49;;;;;;;0.10;0.00;;;19.60;99.90;;;;;;5109684;28;20184;-86
2023/08/21 08:16:16;;;;;;;0.10;0.00;;;19.50;99.90;;;;;;5106942;27;20184;-84
2023/08/21 08:18:42;;;;;;;0.10;0.10;;;19.60;99.90;;;;;;5104190;28;20677;-85
2023/08/21 08:21:07;;;;;;;0.10;0.00;;;19.60;99.90;;;;;;5109552;28;20521;-84
2023/08/21 08:23:33;;;;;;;0.10;0.00;;;19.70;99.90;;;;;;5106318;28;20196;-86
2023/08/21 08:25:58;;;;;;;0.10;0.00;;;20.00;99.90;;;;;;5108456;28;20718;-85
2023/08/21 08:28:24;;;;;;;0.10;0.00;;;20.60;99.90;;;;;;5091869;28;20208;-85
2023/08/21 08:30:50;;;;;;;0.10;0.00;;;20.40;99.90;;;;;;5107569;28;20216;-85
2023/08/21 08:33:17;;;;;;;0.10;0.00;;;20.00;99.90;;;;;;5108694;28;20214;-90
2023/08/21 08:35:43;;;;;;;0.10;0.00;;;19.80;99.90;;;;;;5105274;28;20434;-86
2023/08/21 08:38:09;;;;;;;0.10;0.00;;;20.10;99.90;;;;;;5110119;28;20194;-86
2023/08/21 08:40:41;;;;;;;0.10;0.00;;;20.60;99.90;;;;;;5097312;28;20821;-89
2023/08/21 08:43:06;;;;;;;0.10;0.00;;;20.80;99.90;;;;;;5089785;28;20215;-89
2023/08/21 08:45:34;;;;;;;0.10;0.00;;;21.30;99.90;;;;;;5106453;28;20485;-87
2023/08/21 08:48:03;;;;;;;0.10;0.00;;;21.30;99.90;;;;;;5108141;28;20181;-88
2023/08/21 08:50:32;;;;;;;0.10;0.10;;;21.30;99.90;;;;;;5103714;28;20451;-88
2023/08/21 08:52:59;;;;;;;0.10;0.00;;;21.00;99.90;;;;;;5101281;28;20513;-88
2023/08/21 08:55:25;;;;;;;0.10;0.00;;;21.50;99.90;;;;;;5086967;28;20952;-88
2023/08/21 08:57:52;;;;;;;0.10;0.00;;;21.60;99.90;;;;;;5106263;28;20536;-87
2023/08/21 09:00:20;;;;;;;0.10;0.00;;;21.40;99.90;;;;;;5089073;28;20434;-89
2023/08/21 09:02:46;;;;;;;0.10;0.00;;;21.10;99.90;;;;;;5107305;28;20442;-88
2023/08/21 09:05:12;;;;;;;0.10;0.00;;;20.60;99.90;;;;;;5104762;28;20438;-88
2023/08/21 09:07:38;;;;;;;0.10;0.00;;;20.60;99.90;;;;;;5103296;28;20450;-87
2023/08/21 09:10:04;;;;;;;0.10;0.00;;;21.10;99.90;;;;;;5102170;28;20840;-87
2023/08/21 09:12:33;;;;;;;0.10;0.00;;;21.00;99.90;;;;;;5103793;28;20969;-87
2023/08/21 09:14:59;;;;;;;0.10;0.00;;;21.20;99.90;;;;;;5105581;28;20459;-88
2023/08/21 09:17:26;;;;;;;0.10;0.00;;;21.10;99.90;;;;;;5105779;28;20484;-87
2023/08/21 09:19:51;;;;;;;0.10;0.00;;;21.00;99.90;;;;;;5088789;28;20202;-89
2023/08/21 09:22:18;;;;;;;0.10;0.00;;;21.40;99.90;;;;;;5086816;28;20442;-89
2023/08/21 09:25:06;;;;;;;0.10;0.00;;;21.80;99.90;;;;;;5110458;28;20272;-88
2023/08/21 09:27:37;;;;;;;0.10;0.00;;;21.60;99.90;;;;;;5093593;28;20495;-88
2023/08/21 09:30:09;;;;;;;0.10;0.00;;;21.50;99.90;;;;;;5111831;28;20484;-88
2023/08/21 09:33:04;;;;;;;0.10;0.00;;;21.70;99.90;;;;;;5105578;27;20478;-87
2023/08/21 09:35:33;;;;;;;0.10;0.00;;;22.40;99.90;;;;;;5100553;27;20430;-86
2023/08/21 09:37:59;;;;;;;0.10;0.00;;;22.70;99.90;;;;;;5111030;28;20491;-87
2023/08/21 09:40:24;;;;;;;0.10;0.00;;;22.20;99.90;;;;;;5111099;28;20453;-87
2023/08/21 09:42:54;;;;;;;0.10;0.00;;;22.00;99.90;;;;;;5111917;28;20442;-87
2023/08/21 09:45:24;;;;;;;0.10;0.00;;;22.20;99.90;;;;;;5102775;28;20198;-88
2023/08/21 09:47:52;;;;;;;0.00;0.00;;;22.90;99.90;;;;;;5109844;28;20434;-87
2023/08/21 09:50:18;;;;;;;0.10;0.00;;;22.90;99.90;;;;;;5106992;28;20443;-89
2023/08/21 09:52:45;;;;;;;0.10;0.00;;;22.50;99.90;;;;;;5091925;28;20486;-87
2023/08/21 09:55:13;;;;;;;0.10;0.00;;;22.70;99.90;;;;;;5090997;28;20180;-90
2023/08/21 09:57:40;;;;;;;0.10;0.00;;;23.30;99.90;;;;;;5109464;28;20438;-88
2023/08/21 10:00:20;;;;;;;0.10;0.00;;;24.10;99.90;;;;;;5093158;28;21052;-89
2023/08/21 10:02:49;;;;;;;0.10;0.00;;;23.90;99.90;;;;;;5081226;28;20969;-87
2023/08/21 10:05:18;;;;;;;0.10;0.00;;;23.70;99.90;;;;;;5112445;28;20407;-88
2023/08/21 10:07:48;;;;;;;0.10;0.00;;;24.10;99.90;;;;;;5110705;28;20871;-87
2023/08/21 10:10:16;;;;;;;0.10;0.00;;;24.20;99.90;;;;;;5109302;28;20434;-87
2023/08/21 10:12:42;;;;;;;0.10;0.00;;;24.70;99.90;;;;;;5106530;28;20485;-85
2023/08/21 10:15:11;;;;;;;0.10;0.00;;;25.10;99.90;;;;;;5107832;28;20445;-87
2023/08/21 10:17:37;;;;;;;0.10;0.00;;;25.00;99.90;;;;;;5076082;28;20462;-89
2023/08/21 10:20:05;;;;;;;0.10;0.00;;;25.40;99.90;;;;;;5092638;28;20553;-89
2023/08/21 10:22:59;;;;;;;0.10;0.00;;;24.80;99.90;;;;;;5100110;28;20590;-87
2023/08/21 10:25:28;;;;;;;0.10;0.00;;;25.00;99.90;;;;;;5096246;27;20439;-87
2023/08/21 10:27:58;;;;;;;0.10;0.00;;;25.90;99.90;;;;;;5101076;27;20429;-88
2023/08/21 10:30:26;;;;;;;0.10;0.00;;;26.00;99.90;;;;;;5086856;28;20501;-88
2023/08/21 10:32:53;;;;;;;0.10;0.00;;;26.50;99.90;;;;;;5094922;28;20473;-93
2023/08/21 10:35:24;;;;;;;0.10;0.00;;;26.80;99.90;;;;;;5100929;28;20439;-95
2023/08/21 10:38:13;;;;;;;0.10;0.00;;;27.30;99.90;;;;;;5112431;27;20453;-96
2023/08/21 10:40:40;;;;;;;0.10;0.00;;;27.40;99.90;;;;;;5110024;27;20789;-95
2023/08/21 10:43:44;;;;;;;0.10;0.00;;;27.20;99.90;;;;;;5081744;28;20556;-96
2023/08/21 10:46:11;;;;;;;0.10;0.00;;;27.20;99.90;;;;;;5110666;27;20436;-96
2023/08/21 10:48:37;;;;;;;0.10;0.00;;;27.10;99.90;;;;;;5109805;28;20445;-96
2023/08/21 10:51:06;;;;;;;0.10;0.00;;;26.90;99.90;;;;;;5104454;27;20466;-94
2023/08/21 10:53:33;;;;;;;0.10;0.00;;;27.20;99.90;;;;;;5090948;28;20456;-96
2023/08/21 10:56:05;;;;;;;0.10;0.00;;;27.30;99.90;;;;;;5085734;28;20430;-92
2023/08/21 10:58:40;;;;;;;0.10;0.00;;;27.60;99.90;;;;;;5100150;28;20481;-93
2023/08/21 11:01:06;;;;;;;0.10;0.00;;;26.40;99.90;;;;;;5092722;27;20420;-93
2023/08/21 11:03:31;;;;;;;0.10;0.00;;;25.50;99.90;;;;;;5102827;28;20433;-96
2023/08/21 11:06:02;;;;;;;0.10;0.00;;;24.40;99.90;;;;;;5116034;27;20179;-96
2023/08/21 11:08:28;;;;;;;0.10;0.00;;;23.90;99.90;;;;;;5113211;27;20184;-94
2023/08/21 11:10:54;;;;;;;0.10;0.00;;;23.30;99.90;;;;;;5094758;28;20463;-94
2023/08/21 11:13:22;;;;;;;0.10;0.00;;;23.60;99.90;;;;;;5093857;27;20184;-94
2023/08/21 11:15:47;;;;;;;0.10;0.00;;;25.10;99.90;;;;;;5105800;27;20352;-94
2023/08/21 11:18:13;;;;;;;0.10;0.00;;;26.60;99.90;;;;;;5105679;27;20433;-94
2023/08/21 11:20:39;;;;;;;0.10;0.00;;;27.40;99.90;;;;;;5094328;28;20177;-93
2023/08/21 11:23:06;;;;;;;0.10;0.00;;;28.10;99.90;;;;;;5104745;27;20936;-92
2023/08/21 11:25:33;;;;;;;0.00;0.00;;;26.00;99.90;;;;;;5100946;28;20200;-96
2023/08/21 11:27:59;;;;;;;0.00;0.00;;;25.10;99.90;;;;;;5113077;28;21140;-96
2023/08/21 11:30:25;;;;;;;0.00;0.00;;;26.00;99.90;;;;;;5112965;28;21528;-96
2023/08/21 11:33:11;;;;;;;0.00;0.00;;;27.20;99.90;;;;;;5094275;28;20568;-93
2023/08/21 11:35:38;;;;;;;0.00;0.00;;;28.10;99.90;;;;;;5100716;28;20209;-92
2023/08/21 11:38:04;;;;;;;0.00;0.00;;;29.10;99.90;;;;;;5105953;28;20456;-94
2023/08/21 11:40:30;;;;;;;0.00;0.00;;;28.50;99.90;;;;;;5120089;27;20828;-94
2023/08/21 11:43:00;;;;;;;0.00;0.00;;;27.60;99.90;;;;;;5103724;28;20438;-93
2023/08/21 11:45:26;;;;;;;0.00;0.00;;;28.30;99.90;;;;;;5089287;28;20180;-91
2023/08/21 11:47:56;;;;;;;0.00;0.00;;;29.00;99.90;;;;;;5115819;27;20510;-93
2023/08/21 11:50:21;;;;;;;0.00;0.00;;;27.70;99.90;;;;;;5103265;28;20192;-94
2023/08/21 11:52:47;;;;;;;0.00;0.00;;;28.40;99.90;;;;;;5095310;27;20475;-91
2023/08/21 11:55:13;;;;;;;0.00;0.00;;;28.50;99.90;;;;;;5108675;28;20226;-93
2023/08/21 11:58:01;;;;;;;0.00;0.00;;;28.90;99.90;;;;;;5098197;27;20199;-94
2023/08/21 12:00:29;;;;;;;0.00;0.00;;;29.70;99.90;;;;;;5109004;28;20232;-93
2023/08/21 12:02:56;;;;;;;0.00;0.00;;;30.20;99.90;;;;;;5086665;28;20429;-95
2023/08/21 12:05:22;;;;;;;0.00;0.00;;;30.50;99.90;;;;;;5116419;27;20437;-92
2023/08/21 12:07:48;;;;;;;0.00;0.00;;;30.80;99.90;;;;;;5105127;28;20792;-95
2023/08/21 12:10:13;;;;;;;0.00;0.00;;;29.80;99.90;;;;;;5105032;28;20431;-96
2023/08/21 12:12:39;;;;;;;0.00;0.00;;;30.20;99.90;;;;;;5106483;27;20220;-92
2023/08/21 12:15:05;;;;;;;0.00;0.00;;;30.70;99.90;;;;;;5106036;28;20264;-92
2023/08/21 12:17:30;;;;;;;0.00;0.00;;;30.60;99.90;;;;;;5113329;28;20184;-90
2023/08/21 12:19:56;;;;;;;0.00;0.00;;;30.40;99.90;;;;;;5109688;27;20437;-91
2023/08/21 12:22:22;;;;;;;0.00;0.00;;;30.70;99.90;;;;;;5107097;28;20192;-93
2023/08/21 12:24:47;;;;;;;0.00;0.00;;;29.90;99.90;;;;;;5102575;28;20180;-95
2023/08/21 12:27:13;;;;;;;0.00;0.00;;;29.20;99.90;;;;;;5099471;28;20283;-96
2023/08/21 12:29:38;;;;;;;0.00;0.00;;;28.90;99.90;;;;;;5106124;28;20841;-91
2023/08/21 12:32:04;;;;;;;0.00;0.00;;;29.30;99.90;;;;;;5090901;28;20264;-93
2023/08/21 12:34:30;;;;;;;0.00;0.00;;;30.30;99.90;;;;;;5113214;28;20169;-93
2023/08/21 12:36:56;;;;;;;0.00;0.00;;;31.50;99.90;;;;;;5114738;28;20233;-96
2023/08/21 12:39:21;;;;;;;0.00;0.00;;;31.00;99.90;;;;;;5111577;28;20430;-96
2023/08/21 12:41:48;;;;;;;0.00;0.00;;;31.00;99.90;;;;;;5108932;28;20438;-95
2023/08/21 12:44:15;;;;;;;0.00;0.00;;;31.50;99.90;;;;;;5101146;28;20245;-92
2023/08/21 12:46:40;;;;;;;0.00;0.00;;;30.60;99.90;;;;;;5077040;28;20545;-94